sensor_id;sensor_type;location;lat;lon;timestamp;pressure;altitude;pressure_sealevel;temperature;humidity
41632;BME280;37452;51.938;4.624;2023-02-12T00:01:08;79350.75;;;-142.75;100.00
41632;BME280;37452;51.938;4.624;2023-02-12T00:03:34;79386.19;;;-142.75;100.00
41632;BME280;37452;51.938;4.624;2023-02-12T00:06:00;79394.09;;;-142.75;100.00
41632;BME280;37452;51.938;4.624;2023-02-12T00:08:26;79370.44;;;-142.75;100.00
41632;BME280;37452;51.938;4.624;2023-02-12T00:10:51;79374.38;;;-142.75;100.00
41632;BME280;37452;51.938;4.624;2023-02-12T00:13:16;79374.38;;;-142.75;100.00
41632;BME280;37452;51.938;4.624;2023-02-12T00:15:42;79370.44;;;-142.75;100.00
41632;BME280;37452;51.938;4.624;2023-02-12T00:18:08;79366.50;;;-142.75;100.00
41632;BME280;37452;51.938;4.624;2023-02-12T00:20:35;79374.38;;;-142.75;100.00
41632;BME280;37452;51.938;4.624;2023-02-12T00:23:01;79378.31;;;-142.75;100.00
41632;BME280;37452;51.938;4.624;2023-02-12T00:25:26;79388.16;;;-142.75;100.00
41632;BME280;37452;51.938;4.624;2023-02-12T00:27:52;79380.28;;;-142.75;100.00
41632;BME280;37452;51.938;4.624;2023-02-12T00:30:17;79370.44;;;-142.75;100.00
41632;BME280;37452;51.938;4.624;2023-02-12T00:32:44;79382.25;;;-142.75;100.00
41632;BME280;37452;51.938;4.624;2023-02-12T00:35:10;79362.56;;;-142.75;100.00
41632;BME280;37452;51.938;4.624;2023-02-12T00:37:35;79370.44;;;-142.75;100.00
41632;BME280;37452;51.938;4.624;2023-02-12T00:40:01;79400.00;;;-142.75;100.00
41632;BME280;37452;51.938;4.624;2023-02-12T00:42:27;79386.19;;;-142.75;100.00
41632;BME280;37452;51.938;4.624;2023-02-12T00:44:52;79378.31;;;-142.75;100.00
41632;BME280;37452;51.938;4.624;2023-02-12T00:47:17;79360.59;;;-142.75;100.00
41632;BME280;37452;51.938;4.624;2023-02-12T00:49:43;79368.47;;;-142.75;100.00
41632;BME280;37452;51.938;4.624;2023-02-12T00:52:08;79362.56;;;-142.75;100.00
41632;BME280;37452;51.938;4.624;2023-02-12T00:54:33;79354.69;;;-142.75;100.00
41632;BME280;37452;51.938;4.624;2023-02-12T00:56:58;79378.31;;;-142.75;100.00
41632;BME280;37452;51.938;4.624;2023-02-12T00:59:25;79398.03;;;-142.75;100.00
41632;BME280;37452;51.938;4.624;2023-02-12T01:01:51;79403.94;;;-142.75;100.00
41632;BME280;37452;51.938;4.624;2023-02-12T01:04:17;79398.03;;;-142.75;100.00
41632;BME280;37452;51.938;4.624;2023-02-12T01:06:43;79392.13;;;-142.75;100.00
41632;BME280;37452;51.938;4.624;2023-02-12T01:09:08;79374.38;;;-142.75;100.00
41632;BME280;37452;51.938;4.624;2023-02-12T01:11:33;79362.56;;;-142.75;100.00
41632;BME280;37452;51.938;4.624;2023-02-12T01:13:59;79350.75;;;-142.75;100.00
41632;BME280;37452;51.938;4.624;2023-02-12T01:16:25;79358.63;;;-142.75;100.00
41632;BME280;37452;51.938;4.624;2023-02-12T01:18:51;79374.38;;;-142.75;100.00
41632;BME280;37452;51.938;4.624;2023-02-12T01:21:19;79388.16;;;-142.75;100.00
41632;BME280;37452;51.938;4.624;2023-02-12T01:23:47;79405.91;;;-142.75;100.00
41632;BME280;37452;51.938;4.624;2023-02-12T01:26:13;79409.84;;;-142.75;100.00
41632;BME280;37452;51.938;4.624;2023-02-12T01:28:41;79427.56;;;-142.75;100.00
41632;BME280;37452;51.938;4.624;2023-02-12T01:31:11;79453.19;;;-142.75;100.00
41632;BME280;37452;51.938;4.624;2023-02-12T01:33:38;79405.91;;;-142.75;100.00
41632;BME280;37452;51.938;4.624;2023-02-12T01:36:03;79405.91;;;-142.75;100.00
41632;BME280;37452;51.938;4.624;2023-02-12T01:38:28;79413.78;;;-142.75;100.00
41632;BME280;37452;51.938;4.624;2023-02-12T01:41:00;79398.03;;;-142.75;100.00
41632;BME280;37452;51.938;4.624;2023-02-12T01:43:26;79394.09;;;-142.75;100.00
41632;BME280;37452;51.938;4.624;2023-02-12T01:45:51;79407.88;;;-142.75;100.00
41632;BME280;37452;51.938;4.624;2023-02-12T01:48:18;79382.25;;;-142.75;100.00
41632;BME280;37452;51.938;4.624;2023-02-12T01:50:45;79386.19;;;-142.75;100.00
41632;BME280;37452;51.938;4.624;2023-02-12T01:53:12;79386.19;;;-142.75;100.00
41632;BME280;37452;51.938;4.624;2023-02-12T01:55:45;79388.16;;;-142.75;100.00
41632;BME280;37452;51.938;4.624;2023-02-12T01:58:11;79390.13;;;-142.75;100.00
41632;BME280;37452;51.938;4.624;2023-02-12T02:00:36;79398.03;;;-142.75;100.00
41632;BME280;37452;51.938;4.624;2023-02-12T02:03:02;79403.94;;;-142.75;100.00
41632;BME280;37452;51.938;4.624;2023-02-12T02:07:55;79394.09;;;-142.75;100.00
41632;BME280;37452;51.938;4.624;2023-02-12T02:10:21;79392.13;;;-142.75;100.00
41632;BME280;37452;51.938;4.624;2023-02-12T02:12:46;79403.94;;;-142.75;100.00
41632;BME280;37452;51.938;4.624;2023-02-12T02:15:31;79419.69;;;-142.75;100.00
41632;BME280;37452;51.938;4.624;2023-02-12T02:18:06;79423.63;;;-142.75;100.00
41632;BME280;37452;51.938;4.624;2023-02-12T02:38:45;79409.84;;;-142.75;100.00
41632;BME280;37452;51.938;4.624;2023-02-12T02:41:24;79417.72;;;-142.75;100.00
41632;BME280;37452;51.938;4.624;2023-02-12T02:43:52;79413.78;;;-142.75;100.00
41632;BME280;37452;51.938;4.624;2023-02-12T02:48:51;79403.94;;;-142.75;100.00
41632;BME280;37452;51.938;4.624;2023-02-12T02:51:25;79405.91;;;-142.75;100.00
41632;BME280;37452;51.938;4.624;2023-02-12T02:54:00;79411.81;;;-142.75;100.00
41632;BME280;37452;51.938;4.624;2023-02-12T02:56:28;79398.03;;;-142.75;100.00
41632;BME280;37452;51.938;4.624;2023-02-12T02:59:04;79398.03;;;-142.75;100.00
41632;BME280;37452;51.938;4.624;2023-02-12T03:01:37;79398.03;;;-142.75;100.00
41632;BME280;37452;51.938;4.624;2023-02-12T03:04:23;79398.03;;;-142.75;100.00
41632;BME280;37452;51.938;4.624;2023-02-12T03:07:01;79398.03;;;-142.75;100.00
41632;BME280;37452;51.938;4.624;2023-02-12T03:09:33;79398.03;;;-142.75;100.00
41632;BME280;37452;51.938;4.624;2023-02-12T03:12:12;79407.88;;;-142.75;100.00
41632;BME280;37452;51.938;4.624;2023-02-12T03:15:02;79413.78;;;-142.75;100.00
41632;BME280;37452;51.938;4.624;2023-02-12T03:17:33;79394.09;;;-142.75;100.00
41632;BME280;37452;51.938;4.624;2023-02-12T03:20:04;79394.09;;;-142.75;100.00
41632;BME280;37452;51.938;4.624;2023-02-12T03:22:33;79405.91;;;-142.75;100.00
41632;BME280;37452;51.938;4.624;2023-02-12T03:25:08;79409.84;;;-142.75;100.00
41632;BME280;37452;51.938;4.624;2023-02-12T03:27:43;79413.78;;;-142.75;100.00
41632;BME280;37452;51.938;4.624;2023-02-12T03:30:11;79421.66;;;-142.75;100.00
41632;BME280;37452;51.938;4.624;2023-02-12T03:32:59;79398.03;;;-142.75;100.00
41632;BME280;37452;51.938;4.624;2023-02-12T03:35:33;79413.78;;;-142.75;100.00
41632;BME280;37452;51.938;4.624;2023-02-12T03:41:08;79413.78;;;-142.75;100.00
41632;BME280;37452;51.938;4.624;2023-02-12T03:43:52;79423.63;;;-142.75;100.00
41632;BME280;37452;51.938;4.624;2023-02-12T03:46:24;79413.78;;;-142.75;100.00
41632;BME280;37452;51.938;4.624;2023-02-12T03:53:55;79409.84;;;-142.75;100.00
41632;BME280;37452;51.938;4.624;2023-02-12T03:56:33;79415.75;;;-142.75;100.00
41632;BME280;37452;51.938;4.624;2023-02-12T03:59:03;79409.84;;;-142.75;100.00
41632;BME280;37452;51.938;4.624;2023-02-12T04:01:29;79421.66;;;-142.75;100.00
41632;BME280;37452;51.938;4.624;2023-02-12T04:03:55;79429.53;;;-142.75;100.00
41632;BME280;37452;51.938;4.624;2023-02-12T04:06:25;79423.63;;;-142.75;100.00
41632;BME280;37452;51.938;4.624;2023-02-12T04:08:52;79429.53;;;-142.75;100.00
41632;BME280;37452;51.938;4.624;2023-02-12T04:11:28;79421.66;;;-142.75;100.00
41632;BME280;37452;51.938;4.624;2023-02-12T04:14:11;79425.59;;;-142.75;100.00
41632;BME280;37452;51.938;4.624;2023-02-12T04:19:49;79443.31;;;-142.75;100.00
41632;BME280;37452;51.938;4.624;2023-02-12T04:25:11;79457.13;;;-142.75;100.00
41632;BME280;37452;51.938;4.624;2023-02-12T04:30:26;79465.00;;;-142.75;100.00
41632;BME280;37452;51.938;4.624;2023-02-12T04:33:00;79465.00;;;-142.75;100.00
41632;BME280;37452;51.938;4.624;2023-02-12T04:35:31;79455.16;;;-142.75;100.00
41632;BME280;37452;51.938;4.624;2023-02-12T04:38:05;79461.06;;;-142.75;100.00
41632;BME280;37452;51.938;4.624;2023-02-12T04:40:34;79451.22;;;-142.75;100.00
41632;BME280;37452;51.938;4.624;2023-02-12T04:43:00;79455.16;;;-142.75;100.00
41632;BME280;37452;51.938;4.624;2023-02-12T04:45:27;79461.06;;;-142.75;100.00
41632;BME280;37452;51.938;4.624;2023-02-12T04:47:52;79466.97;;;-142.75;100.00
41632;BME280;37452;51.938;4.624;2023-02-12T04:50:17;79468.94;;;-142.75;100.00
41632;BME280;37452;51.938;4.624;2023-02-12T04:52:43;79461.06;;;-142.75;100.00
41632;BME280;37452;51.938;4.624;2023-02-12T04:55:08;79461.06;;;-142.75;100.00
41632;BME280;37452;51.938;4.624;2023-02-12T04:57:33;79478.78;;;-142.75;100.00
41632;BME280;37452;51.938;4.624;2023-02-12T04:59:59;79463.03;;;-142.75;100.00
41632;BME280;37452;51.938;4.624;2023-02-12T05:02:24;79453.19;;;-142.75;100.00
41632;BME280;37452;51.938;4.624;2023-02-12T05:04:49;79466.97;;;-142.75;100.00
41632;BME280;37452;51.938;4.624;2023-02-12T05:07:15;79459.09;;;-142.75;100.00
41632;BME280;37452;51.938;4.624;2023-02-12T05:09:40;79459.09;;;-142.75;100.00
41632;BME280;37452;51.938;4.624;2023-02-12T05:12:06;79466.97;;;-142.75;100.00
41632;BME280;37452;51.938;4.624;2023-02-12T05:14:31;79476.81;;;-142.75;100.00
41632;BME280;37452;51.938;4.624;2023-02-12T05:16:56;79480.75;;;-142.75;100.00
41632;BME280;37452;51.938;4.624;2023-02-12T05:19:22;79484.69;;;-142.75;100.00
41632;BME280;37452;51.938;4.624;2023-02-12T05:21:48;79482.72;;;-142.75;100.00
41632;BME280;37452;51.938;4.624;2023-02-12T05:24:14;79476.81;;;-142.75;100.00
41632;BME280;37452;51.938;4.624;2023-02-12T05:26:39;79468.94;;;-142.75;100.00
41632;BME280;37452;51.938;4.624;2023-02-12T05:29:05;79476.81;;;-142.75;100.00
41632;BME280;37452;51.938;4.624;2023-02-12T05:31:30;79474.84;;;-142.75;100.00
41632;BME280;37452;51.938;4.624;2023-02-12T05:33:55;79484.69;;;-142.75;100.00
41632;BME280;37452;51.938;4.624;2023-02-12T05:36:21;79465.00;;;-142.75;100.00
41632;BME280;37452;51.938;4.624;2023-02-12T05:38:48;79459.09;;;-142.75;100.00
41632;BME280;37452;51.938;4.624;2023-02-12T05:41:16;79470.91;;;-142.75;100.00
41632;BME280;37452;51.938;4.624;2023-02-12T05:43:42;79476.81;;;-142.75;100.00
41632;BME280;37452;51.938;4.624;2023-02-12T05:46:08;79472.88;;;-142.75;100.00
41632;BME280;37452;51.938;4.624;2023-02-12T05:48:33;79480.75;;;-142.75;100.00
41632;BME280;37452;51.938;4.624;2023-02-12T05:51:14;79476.81;;;-142.75;100.00
41632;BME280;37452;51.938;4.624;2023-02-12T05:53:40;79496.50;;;-142.75;100.00
41632;BME280;37452;51.938;4.624;2023-02-12T05:56:18;79492.56;;;-142.75;100.00
41632;BME280;37452;51.938;4.624;2023-02-12T05:58:45;79490.59;;;-142.75;100.00
41632;BME280;37452;51.938;4.624;2023-02-12T06:01:14;79504.41;;;-142.75;100.00
41632;BME280;37452;51.938;4.624;2023-02-12T06:03:39;79498.47;;;-142.75;100.00
41632;BME280;37452;51.938;4.624;2023-02-12T06:06:04;79500.47;;;-142.75;100.00
41632;BME280;37452;51.938;4.624;2023-02-12T06:08:30;79520.16;;;-142.75;100.00
41632;BME280;37452;51.938;4.624;2023-02-12T06:11:01;79504.41;;;-142.75;100.00
41632;BME280;37452;51.938;4.624;2023-02-12T06:13:27;79494.53;;;-142.75;100.00
41632;BME280;37452;51.938;4.624;2023-02-12T06:15:53;79480.75;;;-142.75;100.00
41632;BME280;37452;51.938;4.624;2023-02-12T06:18:18;79494.53;;;-142.75;100.00
41632;BME280;37452;51.938;4.624;2023-02-12T06:20:43;79486.66;;;-142.75;100.00
41632;BME280;37452;51.938;4.624;2023-02-12T06:23:09;79492.56;;;-142.75;100.00
41632;BME280;37452;51.938;4.624;2023-02-12T06:25:34;79480.75;;;-142.75;100.00
41632;BME280;37452;51.938;4.624;2023-02-12T06:27:59;79484.69;;;-142.75;100.00
41632;BME280;37452;51.938;4.624;2023-02-12T06:30:25;79486.66;;;-142.75;100.00
41632;BME280;37452;51.938;4.624;2023-02-12T06:32:50;79492.56;;;-142.75;100.00
41632;BME280;37452;51.938;4.624;2023-02-12T06:35:15;79502.44;;;-142.75;100.00
41632;BME280;37452;51.938;4.624;2023-02-12T06:37:40;79496.50;;;-142.75;100.00
41632;BME280;37452;51.938;4.624;2023-02-12T06:40:07;79500.47;;;-142.75;100.00
41632;BME280;37452;51.938;4.624;2023-02-12T06:42:32;79508.34;;;-142.75;100.00
41632;BME280;37452;51.938;4.624;2023-02-12T06:44:57;79518.19;;;-142.75;100.00
41632;BME280;37452;51.938;4.624;2023-02-12T06:47:23;79514.25;;;-142.75;100.00
41632;BME280;37452;51.938;4.624;2023-02-12T06:49:48;79520.16;;;-142.75;100.00
41632;BME280;37452;51.938;4.624;2023-02-12T06:52:13;79524.09;;;-142.75;100.00
41632;BME280;37452;51.938;4.624;2023-02-12T06:54:38;79549.69;;;-142.75;100.00
41632;BME280;37452;51.938;4.624;2023-02-12T06:57:04;79557.59;;;-142.75;100.00
41632;BME280;37452;51.938;4.624;2023-02-12T06:59:29;79551.69;;;-142.75;100.00
41632;BME280;37452;51.938;4.624;2023-02-12T07:01:54;79557.59;;;-142.75;100.00
41632;BME280;37452;51.938;4.624;2023-02-12T07:04:20;79549.69;;;-142.75;100.00
41632;BME280;37452;51.938;4.624;2023-02-12T07:06:45;79547.72;;;-142.75;100.00
41632;BME280;37452;51.938;4.624;2023-02-12T07:09:10;79545.75;;;-142.75;100.00
41632;BME280;37452;51.938;4.624;2023-02-12T07:11:36;79555.63;;;-142.75;100.00
41632;BME280;37452;51.938;4.624;2023-02-12T07:14:01;79553.63;;;-142.75;100.00
41632;BME280;37452;51.938;4.624;2023-02-12T07:16:27;79543.78;;;-142.75;100.00
41632;BME280;37452;51.938;4.624;2023-02-12T07:18:52;79557.59;;;-142.75;100.00
41632;BME280;37452;51.938;4.624;2023-02-12T07:21:18;79563.50;;;-142.75;100.00
41632;BME280;37452;51.938;4.624;2023-02-12T07:23:49;79563.50;;;-142.75;100.00
41632;BME280;37452;51.938;4.624;2023-02-12T07:26:15;79571.38;;;-142.75;100.00
41632;BME280;37452;51.938;4.624;2023-02-12T07:28:41;79559.56;;;-142.75;100.00
41632;BME280;37452;51.938;4.624;2023-02-12T07:31:07;79557.59;;;-142.75;100.00
41632;BME280;37452;51.938;4.624;2023-02-12T07:33:34;79559.56;;;-142.75;100.00
41632;BME280;37452;51.938;4.624;2023-02-12T07:36:00;79569.41;;;-142.75;100.00
41632;BME280;37452;51.938;4.624;2023-02-12T07:38:25;79561.53;;;-142.75;100.00
41632;BME280;37452;51.938;4.624;2023-02-12T07:40:50;79575.31;;;-142.75;100.00
41632;BME280;37452;51.938;4.624;2023-02-12T07:43:16;79577.28;;;-142.75;100.00
41632;BME280;37452;51.938;4.624;2023-02-12T07:45:41;79561.53;;;-142.75;100.00
41632;BME280;37452;51.938;4.624;2023-02-12T07:48:06;79569.41;;;-142.75;100.00
41632;BME280;37452;51.938;4.624;2023-02-12T07:50:31;79577.28;;;-142.75;100.00
41632;BME280;37452;51.938;4.624;2023-02-12T07:52:57;79575.31;;;-142.75;100.00
41632;BME280;37452;51.938;4.624;2023-02-12T07:55:22;79567.44;;;-142.75;100.00
41632;BME280;37452;51.938;4.624;2023-02-12T07:57:47;79565.47;;;-142.75;100.00
41632;BME280;37452;51.938;4.624;2023-02-12T08:00:13;79569.41;;;-142.75;100.00
41632;BME280;37452;51.938;4.624;2023-02-12T08:02:38;79563.50;;;-142.75;100.00
41632;BME280;37452;51.938;4.624;2023-02-12T08:05:04;79573.34;;;-142.75;100.00
41632;BME280;37452;51.938;4.624;2023-02-12T08:07:29;79559.56;;;-142.75;100.00
41632;BME280;37452;51.938;4.624;2023-02-12T08:09:54;79549.69;;;-142.75;100.00
41632;BME280;37452;51.938;4.624;2023-02-12T08:12:20;79561.53;;;-142.75;100.00
41632;BME280;37452;51.938;4.624;2023-02-12T08:14:45;79567.44;;;-142.75;100.00
41632;BME280;37452;51.938;4.624;2023-02-12T08:17:10;79551.69;;;-142.75;100.00
41632;BME280;37452;51.938;4.624;2023-02-12T08:19:36;79549.69;;;-142.75;100.00
41632;BME280;37452;51.938;4.624;2023-02-12T08:22:01;79553.63;;;-142.75;100.00
41632;BME280;37452;51.938;4.624;2023-02-12T08:24:27;79537.88;;;-142.75;100.00
41632;BME280;37452;51.938;4.624;2023-02-12T08:26:52;79528.03;;;-142.75;100.00
41632;BME280;37452;51.938;4.624;2023-02-12T08:29:19;79528.03;;;-142.75;100.00
41632;BME280;37452;51.938;4.624;2023-02-12T08:31:48;79533.94;;;-142.75;100.00
41632;BME280;37452;51.938;4.624;2023-02-12T08:36:41;79522.13;;;-142.75;100.00
41632;BME280;37452;51.938;4.624;2023-02-12T08:39:06;79518.19;;;-142.75;100.00
41632;BME280;37452;51.938;4.624;2023-02-12T08:41:32;79522.13;;;-142.75;100.00
41632;BME280;37452;51.938;4.624;2023-02-12T08:44:01;79530.00;;;-142.75;100.00
41632;BME280;37452;51.938;4.624;2023-02-12T08:46:28;79516.22;;;-142.75;100.00
41632;BME280;37452;51.938;4.624;2023-02-12T08:48:59;79518.19;;;-142.75;100.00
41632;BME280;37452;51.938;4.624;2023-02-12T08:51:27;79508.34;;;-142.75;100.00
41632;BME280;37452;51.938;4.624;2023-02-12T08:53:55;79496.50;;;-142.75;100.00
41632;BME280;37452;51.938;4.624;2023-02-12T08:56:21;79500.47;;;-142.75;100.00
41632;BME280;37452;51.938;4.624;2023-02-12T08:58:48;79502.44;;;-142.75;100.00
41632;BME280;37452;51.938;4.624;2023-02-12T09:01:19;79516.22;;;-142.75;100.00
41632;BME280;37452;51.938;4.624;2023-02-12T09:03:45;79520.16;;;-142.75;100.00
41632;BME280;37452;51.938;4.624;2023-02-12T09:06:11;79516.22;;;-142.75;100.00
41632;BME280;37452;51.938;4.624;2023-02-12T09:08:37;79528.03;;;-142.75;100.00
41632;BME280;37452;51.938;4.624;2023-02-12T09:11:08;79528.03;;;-142.75;100.00
41632;BME280;37452;51.938;4.624;2023-02-12T09:13:34;79518.19;;;-142.75;100.00
41632;BME280;37452;51.938;4.624;2023-02-12T09:16:01;79516.22;;;-142.75;100.00
41632;BME280;37452;51.938;4.624;2023-02-12T09:18:27;79508.34;;;-142.75;100.00
41632;BME280;37452;51.938;4.624;2023-02-12T09:20:52;79500.47;;;-142.75;100.00
41632;BME280;37452;51.938;4.624;2023-02-12T09:23:18;79506.38;;;-142.75;100.00
41632;BME280;37452;51.938;4.624;2023-02-12T09:25:44;79490.59;;;-142.75;100.00
41632;BME280;37452;51.938;4.624;2023-02-12T09:28:11;79496.50;;;-142.75;100.00
41632;BME280;37452;51.938;4.624;2023-02-12T09:30:38;79496.50;;;-142.75;100.00
41632;BME280;37452;51.938;4.624;2023-02-12T09:33:05;79476.81;;;-142.75;100.00
41632;BME280;37452;51.938;4.624;2023-02-12T09:35:33;79476.81;;;-142.75;100.00
41632;BME280;37452;51.938;4.624;2023-02-12T09:38:00;79476.81;;;-142.75;100.00
41632;BME280;37452;51.938;4.624;2023-02-12T09:40:38;79470.91;;;-142.75;100.00
41632;BME280;37452;51.938;4.624;2023-02-12T09:43:16;79455.16;;;-142.75;100.00
41632;BME280;37452;51.938;4.624;2023-02-12T09:46:05;79457.13;;;-142.75;100.00
41632;BME280;37452;51.938;4.624;2023-02-12T09:48:47;79459.09;;;-142.75;100.00
41632;BME280;37452;51.938;4.624;2023-02-12T09:51:18;79463.03;;;-142.75;100.00
41632;BME280;37452;51.938;4.624;2023-02-12T09:53:44;79459.09;;;-142.75;100.00
41632;BME280;37452;51.938;4.624;2023-02-12T09:56:13;79447.28;;;-142.75;100.00
41632;BME280;37452;51.938;4.624;2023-02-12T09:58:51;79455.16;;;-142.75;100.00
41632;BME280;37452;51.938;4.624;2023-02-12T10:01:20;79457.13;;;-142.75;100.00
41632;BME280;37452;51.938;4.624;2023-02-12T10:03:47;79457.13;;;-142.75;100.00
41632;BME280;37452;51.938;4.624;2023-02-12T10:06:20;79472.88;;;-142.75;100.00
41632;BME280;37452;51.938;4.624;2023-02-12T10:25:26;79465.00;;;-142.75;100.00
41632;BME280;37452;51.938;4.624;2023-02-12T10:27:56;79472.88;;;-142.75;100.00
41632;BME280;37452;51.938;4.624;2023-02-12T10:30:25;79472.88;;;-142.75;100.00
41632;BME280;37452;51.938;4.624;2023-02-12T10:32:58;79465.00;;;-142.75;100.00
41632;BME280;37452;51.938;4.624;2023-02-12T10:35:24;79465.00;;;-142.75;100.00
41632;BME280;37452;51.938;4.624;2023-02-12T10:40:26;79472.88;;;-142.75;100.00
41632;BME280;37452;51.938;4.624;2023-02-12T10:42:55;79482.72;;;-142.75;100.00
41632;BME280;37452;51.938;4.624;2023-02-12T10:45:30;79482.72;;;-142.75;100.00
41632;BME280;37452;51.938;4.624;2023-02-12T10:53:28;79488.63;;;-142.75;100.00
41632;BME280;37452;51.938;4.624;2023-02-12T10:58:39;79480.75;;;-142.75;100.00
41632;BME280;37452;51.938;4.624;2023-02-12T11:01:14;79484.69;;;-142.75;100.00
41632;BME280;37452;51.938;4.624;2023-02-12T11:03:40;79492.56;;;-142.75;100.00
41632;BME280;37452;51.938;4.624;2023-02-12T11:06:20;79490.59;;;-142.75;100.00
41632;BME280;37452;51.938;4.624;2023-02-12T11:08:46;79465.00;;;-142.75;100.00
41632;BME280;37452;51.938;4.624;2023-02-12T11:11:13;79445.28;;;-142.75;100.00
41632;BME280;37452;51.938;4.624;2023-02-12T11:13:43;79453.19;;;-142.75;100.00
41632;BME280;37452;51.938;4.624;2023-02-12T11:16:11;79451.22;;;-142.75;100.00
41632;BME280;37452;51.938;4.624;2023-02-12T11:18:37;79437.41;;;-142.75;100.00
41632;BME280;37452;51.938;4.624;2023-02-12T11:21:06;79417.72;;;-142.75;100.00
41632;BME280;37452;51.938;4.624;2023-02-12T11:28:29;79437.41;;;-142.75;100.00
41632;BME280;37452;51.938;4.624;2023-02-12T11:30:59;79433.47;;;-142.75;100.00
41632;BME280;37452;51.938;4.624;2023-02-12T11:33:26;79427.56;;;-142.75;100.00
41632;BME280;37452;51.938;4.624;2023-02-12T11:35:53;79409.84;;;-142.75;100.00
41632;BME280;37452;51.938;4.624;2023-02-12T11:38:23;79409.84;;;-142.75;100.00
41632;BME280;37452;51.938;4.624;2023-02-12T11:40:50;79419.69;;;-142.75;100.00
41632;BME280;37452;51.938;4.624;2023-02-12T11:43:17;79423.63;;;-142.75;100.00
41632;BME280;37452;51.938;4.624;2023-02-12T11:45:44;79413.78;;;-142.75;100.00
41632;BME280;37452;51.938;4.624;2023-02-12T11:48:25;79413.78;;;-142.75;100.00
41632;BME280;37452;51.938;4.624;2023-02-12T11:50:54;79417.72;;;-142.75;100.00
41632;BME280;37452;51.938;4.624;2023-02-12T11:53:23;79413.78;;;-142.75;100.00
41632;BME280;37452;51.938;4.624;2023-02-12T11:55:56;79405.91;;;-142.75;100.00
41632;BME280;37452;51.938;4.624;2023-02-12T11:58:24;79403.94;;;-142.75;100.00
41632;BME280;37452;51.938;4.624;2023-02-12T12:03:44;79396.06;;;-142.75;100.00
41632;BME280;37452;51.938;4.624;2023-02-12T12:06:30;79388.16;;;-142.75;100.00
41632;BME280;37452;51.938;4.624;2023-02-12T12:09:34;79386.19;;;-142.75;100.00
41632;BME280;37452;51.938;4.624;2023-02-12T12:12:19;79403.94;;;-142.75;100.00
41632;BME280;37452;51.938;4.624;2023-02-12T12:14:53;79409.84;;;-142.75;100.00
41632;BME280;37452;51.938;4.624;2023-02-12T12:17:40;79429.53;;;-142.75;100.00
41632;BME280;37452;51.938;4.624;2023-02-12T12:20:35;79423.63;;;-142.75;100.00
41632;BME280;37452;51.938;4.624;2023-02-12T12:23:10;79421.66;;;-142.75;100.00
41632;BME280;37452;51.938;4.624;2023-02-12T12:25:46;79433.47;;;-142.75;100.00
41632;BME280;37452;51.938;4.624;2023-02-12T12:28:29;79435.44;;;-142.75;100.00
41632;BME280;37452;51.938;4.624;2023-02-12T12:31:01;79425.59;;;-142.75;100.00
41632;BME280;37452;51.938;4.624;2023-02-12T12:33:33;79449.25;;;-142.75;100.00
41632;BME280;37452;51.938;4.624;2023-02-12T12:38:35;79449.25;;;-142.75;100.00
41632;BME280;37452;51.938;4.624;2023-02-12T12:49:29;79433.47;;;-142.75;100.00
41632;BME280;37452;51.938;4.624;2023-02-12T12:52:15;79415.75;;;-142.75;100.00
41632;BME280;37452;51.938;4.624;2023-02-12T12:55:02;79401.97;;;-142.75;100.00
41632;BME280;37452;51.938;4.624;2023-02-12T13:15:07;79433.47;;;-142.75;100.00
41632;BME280;37452;51.938;4.624;2023-02-12T13:18:02;79425.59;;;-142.75;100.00
41632;BME280;37452;51.938;4.624;2023-02-12T13:26:15;79419.69;;;-142.75;100.00
41632;BME280;37452;51.938;4.624;2023-02-12T13:28:47;79405.91;;;-142.75;100.00
41632;BME280;37452;51.938;4.624;2023-02-12T13:31:19;79394.09;;;-142.75;100.00
41632;BME280;37452;51.938;4.624;2023-02-12T13:33:50;79396.06;;;-142.75;100.00
41632;BME280;37452;51.938;4.624;2023-02-12T13:36:17;79401.97;;;-142.75;100.00
41632;BME280;37452;51.938;4.624;2023-02-12T13:39:29;79382.25;;;-142.75;100.00
41632;BME280;37452;51.938;4.624;2023-02-12T13:41:28;79394.09;;;-142.75;100.00
41632;BME280;37452;51.938;4.624;2023-02-12T13:43:59;79407.88;;;-142.75;100.00
41632;BME280;37452;51.938;4.624;2023-02-12T13:46:47;79398.03;;;-142.75;100.00
41632;BME280;37452;51.938;4.624;2023-02-12T13:49:17;79382.25;;;-142.75;100.00
41632;BME280;37452;51.938;4.624;2023-02-12T13:51:49;79392.13;;;-142.75;100.00
41632;BME280;37452;51.938;4.624;2023-02-12T13:56:54;79390.13;;;-142.75;100.00
41632;BME280;37452;51.938;4.624;2023-02-12T13:59:38;79396.06;;;-142.75;100.00
41632;BME280;37452;51.938;4.624;2023-02-12T14:02:50;79392.13;;;-142.75;100.00
41632;BME280;37452;51.938;4.624;2023-02-12T14:07:16;79394.09;;;-142.75;100.00
41632;BME280;37452;51.938;4.624;2023-02-12T14:12:15;79425.59;;;-142.75;100.00
41632;BME280;37452;51.938;4.624;2023-02-12T14:14:43;79417.72;;;-142.75;100.00
41632;BME280;37452;51.938;4.624;2023-02-12T14:30:29;79431.50;;;-142.75;100.00
41632;BME280;37452;51.938;4.624;2023-02-12T14:33:09;79439.38;;;-142.75;100.00
41632;BME280;37452;51.938;4.624;2023-02-12T14:35:40;79453.19;;;-142.75;100.00
41632;BME280;37452;51.938;4.624;2023-02-12T14:43:40;79423.63;;;-142.75;100.00
41632;BME280;37452;51.938;4.624;2023-02-12T14:48:55;79433.47;;;-142.75;100.00
41632;BME280;37452;51.938;4.624;2023-02-12T14:54:25;79447.28;;;-142.75;100.00
41632;BME280;37452;51.938;4.624;2023-02-12T14:56:51;79476.81;;;-142.75;100.00
41632;BME280;37452;51.938;4.624;2023-02-12T14:59:22;79461.06;;;-142.75;100.00
41632;BME280;37452;51.938;4.624;2023-02-12T15:01:50;79468.94;;;-142.75;100.00
41632;BME280;37452;51.938;4.624;2023-02-12T15:04:23;79461.06;;;-142.75;100.00